Abashiri, Japan

9:01 PM JST on October 24, 2014 (GMT +0900)
Memanbetsu | Change Station
CLOSE
Current Station
Airport
Location: Memambetsu,
Elevation: 118 ft
Nearby Weather Stations

Elev 118 ft 43.88 °N, 144.16 °E | Updated 1 hour ago

Partly Cloudy
Partly Cloudy
45 °F
Feels Like 41 °F
N
6
Wind Variable Wind from WSW

Today
High -- | Low -- °F
--% Chance of Precip.
Yesterday
High -- | Low -- °F
Precip. -- in
5:48 AM 4:25 PM
New Moon, 0% visible
Pressure 30.06 in
Visibility 6.2 miles
Clouds Few 3000 ft
Windchill 41 °F
Dew Point 39 °F
Humidity 81%
Rainfall 0.00 in
Snow Depth Not available.
UV 0 out of 12
Pollen Not available.
Air Quality Not available.
Flu Activity Not available.
METAR RJCM 241100Z 25005KT 9999 FEW030 BKN/// 07/04 Q1018

More Conditions Fewer Conditions

Pressure 30.06 in
Visibility 6.2 miles
Clouds Few 3000 ft
Windchill 41 °F
Dew Point 39 °F
Humidity 81%
Rainfall 0.00 in
Snow Depth Not available.
UV 0 out of 12
Pollen Not available.
Air Quality Not available.
Flu Activity Not available.
METAR RJCM 241100Z 25005KT 9999 FEW030 BKN/// 07/04 Q1018

More Conditions Fewer Conditions

10-Day Weather Forecast

Almanac

Astronomy

Oct. 24, 2014 Rise Set
Actual Time 5:48 AM JST 4:25 PM JST
Civil Twilight 5:18 AM JST 4:54 PM JST
Nautical Twilight 4:44 AM JST 5:28 PM JST
Astronomical Twilight 4:11 AM JST 6:02 PM JST
Moon 5:48 AM JST 4:39 PM JST
Length of Visible Light 11h 36m
Length of Day
10h 37m
Tomorrow will be 2m 51s shorter.
New Moon, 0% of the Moon is Illuminated
Today
New Moon
Oct 30
First Quarter
Nov 6
Full
Nov 14
Last Quarter
Nov 22
New

Yesterday's Extremes

Country Highs Country Lows

Community

WunderPhotos

Upload Photos

1,764,528 photos uploaded!

Nearby

Snow Depth

Not available.

Earthquake Activity

City Distance Mag. Time & Date
No recent earthquake activity has been reported nearby.
Minimum magnitude displayed is 2.5.

Coastal Water Temperatures

Place Temperature
No Stations Reporting

Nearby Weather Stations